createdAt,value
2023-01-29T00:01:56.758Z,8.80
2023-01-29T00:04:23.899Z,9.18
2023-01-29T00:06:50.329Z,9.23
2023-01-29T00:09:16.824Z,9.50
2023-01-29T00:11:43.378Z,8.93
2023-01-29T00:14:09.863Z,9.07
2023-01-29T00:16:36.447Z,9.32
2023-01-29T00:19:03.303Z,8.45
2023-01-29T00:21:33.403Z,8.73
2023-01-29T00:24:00.402Z,9.18
2023-01-29T00:26:27.961Z,8.95
2023-01-29T00:28:56.978Z,8.80
2023-01-29T00:31:24.982Z,9.45
2023-01-29T00:33:52.139Z,8.23
2023-01-29T00:36:23.321Z,9.52
2023-01-29T00:38:58.485Z,9.40
2023-01-29T00:41:50.540Z,8.53
2023-01-29T00:44:36.914Z,8.48
2023-01-29T00:47:03.963Z,9.35
2023-01-29T00:49:30.586Z,9.13
2023-01-29T00:52:15.481Z,8.48
2023-01-29T00:54:41.835Z,9.32
2023-01-29T00:57:08.195Z,8.82
2023-01-29T00:59:34.584Z,8.45
2023-01-29T01:02:19.895Z,9.05
2023-01-29T01:04:46.324Z,7.78
2023-01-29T01:09:56.352Z,8.15
2023-01-29T01:12:22.952Z,8.18
2023-01-29T01:14:49.441Z,8.10
2023-01-29T01:17:15.989Z,8.88
2023-01-29T01:19:42.561Z,8.15
2023-01-29T01:22:08.994Z,7.05
2023-01-29T01:24:35.891Z,8.98
2023-01-29T01:27:02.306Z,8.05
2023-01-29T01:29:28.825Z,8.38
2023-01-29T01:31:55.254Z,9.25
2023-01-29T01:34:22.196Z,7.82
2023-01-29T01:36:49.184Z,8.35
2023-01-29T01:39:15.775Z,7.72
2023-01-29T01:41:42.482Z,9.27
2023-01-29T01:44:47.346Z,9.35
2023-01-29T01:47:15.495Z,7.32
2023-01-29T01:49:43.320Z,7.82
2023-01-29T01:52:10.350Z,8.18
2023-01-29T01:54:36.814Z,8.00
2023-01-29T01:57:15.782Z,8.68
2023-01-29T01:59:55.079Z,8.60
2023-01-29T02:02:40.259Z,8.23
2023-01-29T02:05:26.180Z,7.93
2023-01-29T02:08:11.253Z,9.25
2023-01-29T02:10:44.463Z,7.72
2023-01-29T02:13:11.064Z,7.90
2023-01-29T02:15:41.752Z,9.25
2023-01-29T02:18:09.143Z,8.65
2023-01-29T02:20:36.781Z,8.45
2023-01-29T02:23:27.052Z,8.60
2023-01-29T02:26:09.624Z,8.10
2023-01-29T02:28:50.073Z,7.70
2023-01-29T02:31:55.957Z,7.25
2023-01-29T02:34:52.628Z,7.13
2023-01-29T02:37:25.946Z,8.73
2023-01-29T02:40:03.978Z,7.18
2023-01-29T02:42:48.914Z,6.75
2023-01-29T02:45:24.844Z,8.80
2023-01-29T02:50:18.799Z,7.72
2023-01-29T02:53:13.088Z,7.78
2023-01-29T02:55:39.461Z,7.93
2023-01-29T02:58:25.694Z,8.32
2023-01-29T03:00:56.106Z,7.70
2023-01-29T03:03:34.487Z,8.02
2023-01-29T03:06:12.053Z,8.70
2023-01-29T03:08:45.534Z,8.05
2023-01-29T03:11:14.796Z,8.75
2023-01-29T03:13:43.098Z,8.45
2023-01-29T03:16:22.417Z,7.32
2023-01-29T03:18:57.072Z,9.27
2023-01-29T03:21:59.532Z,8.30
2023-01-29T03:24:59.701Z,7.95
2023-01-29T03:27:50.450Z,9.43
2023-01-29T03:30:37.732Z,8.45
2023-01-29T03:33:07.946Z,8.05
2023-01-29T03:35:39.534Z,8.77
2023-01-29T03:38:11.693Z,7.97
2023-01-29T03:40:50.906Z,8.13
2023-01-29T03:43:20.264Z,8.40
2023-01-29T03:46:10.655Z,7.70
2023-01-29T03:48:45.857Z,9.63
2023-01-29T03:51:18.711Z,9.43
2023-01-29T03:53:51.886Z,8.93
2023-01-29T03:56:34.520Z,8.70
2023-01-29T03:59:12.369Z,7.20
2023-01-29T04:01:48.589Z,8.40
2023-01-29T04:04:22.600Z,7.72
2023-01-29T04:06:53.041Z,8.48
2023-01-29T04:09:24.955Z,8.70
2023-01-29T04:12:05.527Z,9.52
2023-01-29T04:14:32.704Z,8.10
2023-01-29T04:17:03.344Z,7.63
2023-01-29T04:19:30.237Z,8.88
2023-01-29T04:22:10.613Z,9.13
2023-01-29T04:24:37.570Z,8.95
2023-01-29T04:27:14.626Z,9.57
2023-01-29T04:30:00.941Z,9.77
2023-01-29T04:32:55.258Z,7.70
2023-01-29T04:35:26.844Z,8.85
2023-01-29T04:38:18.113Z,8.00
2023-01-29T04:41:11.447Z,8.30
2023-01-29T04:43:50.034Z,8.55
2023-01-29T04:46:42.054Z,8.13
2023-01-29T04:49:17.539Z,7.97
2023-01-29T04:52:26.825Z,7.45
2023-01-29T04:55:15.130Z,9.25
2023-01-29T04:58:07.917Z,10.32
2023-01-29T05:00:42.255Z,7.93
2023-01-29T05:03:11.558Z,9.45
2023-01-29T05:05:42.321Z,9.05
2023-01-29T05:08:13.316Z,9.48
2023-01-29T05:10:40.022Z,10.13
2023-01-29T05:13:11.869Z,9.63
2023-01-29T05:15:49.849Z,8.07
2023-01-29T05:18:16.548Z,10.10
2023-01-29T05:20:44.323Z,8.93
2023-01-29T05:23:20.183Z,8.13
2023-01-29T05:25:48.715Z,10.23
2023-01-29T05:28:18.335Z,8.45
2023-01-29T05:30:47.181Z,10.00
2023-01-29T05:33:16.504Z,8.95
2023-01-29T05:35:43.112Z,9.77
2023-01-29T05:38:10.181Z,9.73
2023-01-29T05:40:37.492Z,8.00
2023-01-29T05:43:05.768Z,8.50
2023-01-29T05:45:32.802Z,8.40
2023-01-29T05:48:00.169Z,9.57
2023-01-29T05:50:27.388Z,9.68
2023-01-29T05:53:01.061Z,9.07
2023-01-29T05:55:29.600Z,9.45
2023-01-29T05:57:56.061Z,8.95
2023-01-29T06:00:22.593Z,9.65
2023-01-29T06:02:49.607Z,9.52
2023-01-29T06:05:16.051Z,8.38
2023-01-29T06:07:45.236Z,8.82
2023-01-29T06:10:16.935Z,9.23
2023-01-29T06:12:44.073Z,9.18
2023-01-29T06:15:12.271Z,8.43
2023-01-29T06:17:38.846Z,9.43
2023-01-29T06:20:06.066Z,8.20
2023-01-29T06:22:33.074Z,8.93
2023-01-29T06:24:59.804Z,7.88
2023-01-29T06:27:26.252Z,7.70
2023-01-29T06:29:52.665Z,8.95
2023-01-29T06:32:19.142Z,8.75
2023-01-29T06:34:47.307Z,8.27
2023-01-29T06:37:15.064Z,8.68
2023-01-29T06:39:41.531Z,8.80
2023-01-29T06:42:08.515Z,9.05
2023-01-29T06:44:34.961Z,9.27
2023-01-29T06:47:01.378Z,9.00
2023-01-29T06:49:27.795Z,9.23
2023-01-29T06:51:54.339Z,10.27
2023-01-29T06:54:20.801Z,8.70
2023-01-29T06:56:47.188Z,10.50
2023-01-29T06:59:13.738Z,9.25
2023-01-29T07:01:42.263Z,8.82
2023-01-29T07:04:09.011Z,9.50
2023-01-29T07:06:35.806Z,8.50
2023-01-29T07:09:03.857Z,9.75
2023-01-29T07:11:34.256Z,8.32
2023-01-29T07:14:00.696Z,9.02
2023-01-29T07:16:27.417Z,9.63
2023-01-29T07:18:53.839Z,9.05
2023-01-29T07:21:20.338Z,9.32
2023-01-29T07:23:46.715Z,8.32
2023-01-29T07:26:13.238Z,8.40
2023-01-29T07:28:40.442Z,9.43
2023-01-29T07:31:07.762Z,8.10
2023-01-29T07:33:34.838Z,8.85
2023-01-29T07:36:01.291Z,8.93
2023-01-29T07:38:27.699Z,9.15
2023-01-29T07:40:54.859Z,7.78
2023-01-29T07:43:21.387Z,9.30
2023-01-29T07:45:47.875Z,9.27
2023-01-29T07:48:14.350Z,9.75
2023-01-29T07:50:41.160Z,9.40
2023-01-29T07:53:07.837Z,7.85
2023-01-29T07:55:34.231Z,8.27
2023-01-29T07:58:02.963Z,9.82
2023-01-29T08:00:31.589Z,8.82
2023-01-29T08:03:15.124Z,8.32
2023-01-29T08:05:42.009Z,7.95
2023-01-29T08:08:08.662Z,7.40
2023-01-29T08:10:38.892Z,8.75
2023-01-29T08:13:06.407Z,8.55
2023-01-29T08:15:33.786Z,9.55
2023-01-29T08:18:04.067Z,9.80
2023-01-29T08:20:30.676Z,7.78
2023-01-29T08:23:12.647Z,9.13
2023-01-29T08:25:40.625Z,9.43
2023-01-29T08:28:07.238Z,9.38
2023-01-29T08:30:34.655Z,8.68
2023-01-29T08:33:03.108Z,9.23
2023-01-29T08:35:34.527Z,7.97
2023-01-29T08:38:03.405Z,8.82
2023-01-29T08:40:32.258Z,10.95
2023-01-29T08:43:09.163Z,8.77
2023-01-29T08:45:39.805Z,7.72
2023-01-29T08:48:07.100Z,8.82
2023-01-29T08:50:35.867Z,10.00
2023-01-29T08:53:07.630Z,8.57
2023-01-29T08:55:37.318Z,9.38
2023-01-29T08:58:11.432Z,9.25
2023-01-29T09:00:38.613Z,8.50
2023-01-29T09:03:05.043Z,9.43
2023-01-29T09:05:31.456Z,8.45
2023-01-29T09:07:58.137Z,9.20
2023-01-29T09:10:24.998Z,9.35
2023-01-29T09:12:51.499Z,9.23
2023-01-29T09:15:18.488Z,8.45
2023-01-29T09:17:45.204Z,8.88
2023-01-29T09:20:11.837Z,9.50
2023-01-29T09:22:38.412Z,9.27
2023-01-29T09:25:05.251Z,8.15
2023-01-29T09:27:31.727Z,10.13
2023-01-29T09:29:58.210Z,9.93
2023-01-29T09:32:51.972Z,9.13
2023-01-29T09:35:14.830Z,10.60
2023-01-29T09:37:41.567Z,8.25
2023-01-29T09:40:20.977Z,10.43
2023-01-29T09:42:55.253Z,9.50
2023-01-29T09:45:24.778Z,8.50
2023-01-29T09:47:54.819Z,9.43
2023-01-29T09:50:29.072Z,8.68
2023-01-29T09:53:04.992Z,9.30
2023-01-29T09:55:37.352Z,9.35
2023-01-29T09:58:35.780Z,9.48
2023-01-29T10:01:10.894Z,9.90
2023-01-29T10:03:52.597Z,10.33
2023-01-29T10:06:25.039Z,9.18
2023-01-29T10:09:00.737Z,10.85
2023-01-29T10:11:37.714Z,9.85
2023-01-29T10:14:07.089Z,11.18
2023-01-29T10:16:45.377Z,10.35
2023-01-29T10:19:33.445Z,10.32
2023-01-29T10:22:05.797Z,10.60
2023-01-29T10:24:38.783Z,10.45
2023-01-29T10:27:18.860Z,9.23
2023-01-29T10:29:48.717Z,10.02
2023-01-29T10:32:21.792Z,8.98
2023-01-29T10:35:22.642Z,10.57
2023-01-29T10:37:54.704Z,8.70
2023-01-29T10:40:54.099Z,9.60
2023-01-29T10:43:38.863Z,10.27
2023-01-29T10:46:31.968Z,9.73
2023-01-29T10:49:21.923Z,8.82
2023-01-29T10:52:26.199Z,11.13
2023-01-29T10:55:19.930Z,9.10
2023-01-29T10:57:49.032Z,9.05
2023-01-29T11:00:33.261Z,10.35
2023-01-29T11:03:26.446Z,9.48
2023-01-29T11:06:03.081Z,10.10
2023-01-29T11:08:43.066Z,10.82
2023-01-29T11:11:22.034Z,10.25
2023-01-29T11:14:08.884Z,10.40
2023-01-29T11:16:45.571Z,10.00
2023-01-29T11:19:14.783Z,10.30
2023-01-29T11:21:58.460Z,10.10
2023-01-29T11:24:26.044Z,9.77
2023-01-29T11:26:57.574Z,10.50
2023-01-29T11:29:29.999Z,10.15
2023-01-29T11:32:03.450Z,10.70
2023-01-29T11:34:33.381Z,9.88
2023-01-29T11:37:05.125Z,10.57
2023-01-29T11:39:35.340Z,11.43
2023-01-29T11:42:04.025Z,9.65
2023-01-29T11:44:33.211Z,9.70
2023-01-29T11:47:12.896Z,9.77
2023-01-29T11:49:45.559Z,9.95
2023-01-29T11:52:16.429Z,10.35
2023-01-29T11:55:21.739Z,11.05
2023-01-29T11:58:06.825Z,9.95
2023-01-29T12:00:35.858Z,10.02
2023-01-29T12:03:13.540Z,11.20
2023-01-29T12:05:41.240Z,8.43
2023-01-29T12:08:18.087Z,11.35
2023-01-29T12:10:44.887Z,9.18
2023-01-29T12:13:12.124Z,9.65
2023-01-29T12:15:40.026Z,10.75
2023-01-29T12:18:27.666Z,10.85
2023-01-29T12:20:59.218Z,10.20
2023-01-29T12:23:34.605Z,10.98
2023-01-29T12:26:21.244Z,11.02
2023-01-29T12:28:48.171Z,10.65
2023-01-29T12:31:33.347Z,10.05
2023-01-29T12:34:27.341Z,10.43
2023-01-29T12:37:03.014Z,9.27
2023-01-29T12:39:29.838Z,11.45
2023-01-29T12:42:04.636Z,9.07
2023-01-29T12:44:42.108Z,9.52
2023-01-29T12:47:19.200Z,10.75
2023-01-29T12:49:51.533Z,9.77
2023-01-29T12:52:41.798Z,10.23
2023-01-29T12:55:22.204Z,9.80
2023-01-29T12:58:10.341Z,9.63
2023-01-29T13:00:46.660Z,10.68
2023-01-29T13:03:44.474Z,9.98
2023-01-29T13:06:54.510Z,8.45
2023-01-29T13:09:29.748Z,8.98
2023-01-29T13:12:01.685Z,10.50
2023-01-29T13:14:43.431Z,10.85
2023-01-29T13:17:36.131Z,10.20
2023-01-29T13:20:25.610Z,10.18
2023-01-29T13:22:56.423Z,10.15
2023-01-29T13:25:23.789Z,10.45
2023-01-29T13:27:51.166Z,10.05
2023-01-29T13:30:37.541Z,10.55
2023-01-29T13:33:09.416Z,10.57
2023-01-29T13:35:42.974Z,11.02
2023-01-29T13:38:29.564Z,11.50
2023-01-29T13:41:03.023Z,10.65
2023-01-29T13:43:38.538Z,11.75
2023-01-29T13:46:14.007Z,8.98
2023-01-29T13:48:47.103Z,10.80
2023-01-29T13:51:20.040Z,11.73
2023-01-29T13:54:02.326Z,10.70
2023-01-29T13:56:34.906Z,10.57
2023-01-29T13:59:03.286Z,10.70
2023-01-29T14:01:48.103Z,13.43
2023-01-29T14:04:28.189Z,12.73
2023-01-29T14:06:56.602Z,11.45
2023-01-29T14:09:38.008Z,11.50
2023-01-29T14:12:25.295Z,12.13
2023-01-29T14:14:54.363Z,11.77
2023-01-29T14:17:21.297Z,10.13
2023-01-29T14:20:17.387Z,11.45
2023-01-29T14:22:43.881Z,11.60
2023-01-29T14:25:18.665Z,11.55
2023-01-29T14:27:49.272Z,12.05
2023-01-29T14:30:19.364Z,12.77
2023-01-29T14:32:51.551Z,13.93
2023-01-29T14:35:24.878Z,12.48
2023-01-29T14:37:54.845Z,10.57
2023-01-29T14:40:25.771Z,11.73
2023-01-29T14:43:06.255Z,14.27
2023-01-29T14:45:34.271Z,12.27
2023-01-29T14:48:03.920Z,11.23
2023-01-29T14:50:34.137Z,13.05
2023-01-29T14:53:11.880Z,13.20
2023-01-29T14:55:50.427Z,11.40
2023-01-29T14:58:24.255Z,12.43
2023-01-29T15:00:55.057Z,10.82
2023-01-29T15:03:49.932Z,13.32
2023-01-29T15:06:23.883Z,14.18
2023-01-29T15:09:13.423Z,12.52
2023-01-29T15:11:51.728Z,11.68
2023-01-29T15:14:34.214Z,11.82
2023-01-29T15:17:23.485Z,13.38
2023-01-29T15:19:49.979Z,12.65
2023-01-29T15:22:19.392Z,13.38
2023-01-29T15:24:50.627Z,13.65
2023-01-29T15:27:20.322Z,11.30
2023-01-29T15:29:59.026Z,12.82
2023-01-29T15:32:36.052Z,11.65
2023-01-29T15:35:16.087Z,13.50
2023-01-29T15:37:42.638Z,12.52
2023-01-29T15:40:17.265Z,13.98
2023-01-29T15:42:48.367Z,13.55
2023-01-29T15:45:34.177Z,12.27
2023-01-29T15:48:08.878Z,13.15
2023-01-29T15:50:39.321Z,12.13
2023-01-29T15:53:09.924Z,12.55
2023-01-29T15:55:39.179Z,14.35
2023-01-29T15:58:07.506Z,12.23
2023-01-29T16:00:35.965Z,12.65
2023-01-29T16:03:16.031Z,13.90
2023-01-29T16:05:46.294Z,12.85
2023-01-29T16:08:15.233Z,13.35
2023-01-29T16:10:44.493Z,13.20
2023-01-29T16:13:25.120Z,14.05
2023-01-29T16:16:04.189Z,12.90
2023-01-29T16:18:36.496Z,13.27
2023-01-29T16:21:09.068Z,13.88
2023-01-29T16:23:42.646Z,14.20
2023-01-29T16:26:16.457Z,13.77
2023-01-29T16:28:44.749Z,13.10
2023-01-29T16:31:14.012Z,14.50
2023-01-29T16:33:43.230Z,14.52
2023-01-29T16:36:22.244Z,11.85
2023-01-29T16:39:05.680Z,13.25
2023-01-29T16:41:35.923Z,13.48
2023-01-29T16:44:24.259Z,12.65
2023-01-29T16:46:52.253Z,14.40
2023-01-29T16:49:30.944Z,12.68
2023-01-29T16:52:19.472Z,13.75
2023-01-29T16:54:45.951Z,12.70
2023-01-29T16:57:17.754Z,14.13
2023-01-29T16:59:44.565Z,12.82
2023-01-29T17:02:35.076Z,12.23
2023-01-29T17:05:08.063Z,13.70
2023-01-29T17:07:36.643Z,13.60
2023-01-29T17:10:06.465Z,13.52
2023-01-29T17:12:34.029Z,14.07
2023-01-29T17:15:25.133Z,12.23
2023-01-29T17:17:51.678Z,13.02
2023-01-29T17:20:18.208Z,14.73
2023-01-29T17:22:45.078Z,15.85
2023-01-29T17:25:15.868Z,16.05
2023-01-29T17:27:48.278Z,13.32
2023-01-29T17:30:16.523Z,14.75
2023-01-29T17:32:44.974Z,17.00
2023-01-29T17:35:14.307Z,16.30
2023-01-29T17:37:41.033Z,16.08
2023-01-29T17:40:37.388Z,14.85
2023-01-29T17:43:03.818Z,13.25
2023-01-29T17:45:30.351Z,14.85
2023-01-29T17:47:56.941Z,13.32
2023-01-29T17:50:27.009Z,14.85
2023-01-29T17:52:53.923Z,15.73
2023-01-29T17:55:20.886Z,14.00
2023-01-29T17:57:47.446Z,12.38
2023-01-29T18:00:23.802Z,14.38
2023-01-29T18:02:50.251Z,13.48
2023-01-29T18:05:17.988Z,12.85
2023-01-29T18:07:46.959Z,13.18
2023-01-29T18:10:18.678Z,13.68
2023-01-29T18:12:45.521Z,14.27
2023-01-29T18:15:12.403Z,13.27
2023-01-29T18:17:39.598Z,12.88
2023-01-29T18:20:20.881Z,12.95
2023-01-29T18:22:47.457Z,13.35
2023-01-29T18:25:14.205Z,13.13
2023-01-29T18:27:40.808Z,12.13
2023-01-29T18:30:08.479Z,11.80
2023-01-29T18:32:34.969Z,13.35
2023-01-29T18:35:01.482Z,11.68
2023-01-29T18:37:29.312Z,11.57
2023-01-29T18:39:55.795Z,13.63
2023-01-29T18:42:22.181Z,11.23
2023-01-29T18:44:49.002Z,11.88
2023-01-29T18:47:15.947Z,13.95
2023-01-29T18:49:42.377Z,13.30
2023-01-29T18:52:10.660Z,11.90
2023-01-29T18:54:40.328Z,12.43
2023-01-29T18:57:14.316Z,11.30
2023-01-29T18:59:54.451Z,11.35
2023-01-29T19:02:21.405Z,12.27
2023-01-29T19:04:48.045Z,11.32
2023-01-29T19:07:29.673Z,11.88
2023-01-29T19:10:06.001Z,11.60
2023-01-29T19:12:36.619Z,12.45
2023-01-29T19:15:03.690Z,11.35
2023-01-29T19:17:34.034Z,12.60
2023-01-29T19:20:04.874Z,11.73
2023-01-29T19:22:32.463Z,10.80
2023-01-29T19:25:03.584Z,11.85
2023-01-29T19:27:30.570Z,13.43
2023-01-29T19:30:00.054Z,11.30
2023-01-29T19:32:28.857Z,10.43
2023-01-29T19:34:55.468Z,12.25
2023-01-29T19:37:22.392Z,11.27
2023-01-29T19:39:48.956Z,12.10
2023-01-29T19:42:20.363Z,9.50
2023-01-29T19:44:51.113Z,11.07
2023-01-29T19:47:17.792Z,11.90
2023-01-29T19:49:46.271Z,11.32
2023-01-29T19:52:49.767Z,11.63
2023-01-29T19:55:21.259Z,10.68
2023-01-29T19:58:29.820Z,12.18
2023-01-29T20:00:58.003Z,11.68
2023-01-29T20:03:28.240Z,11.23
2023-01-29T20:05:56.470Z,10.65
2023-01-29T20:08:30.324Z,11.25
2023-01-29T20:10:57.591Z,12.73
2023-01-29T20:13:27.702Z,12.20
2023-01-29T20:15:55.726Z,10.50
2023-01-29T20:18:22.400Z,12.82
2023-01-29T20:20:52.952Z,10.88
2023-01-29T20:23:36.661Z,11.68
2023-01-29T20:26:07.401Z,11.23
2023-01-29T20:28:34.623Z,9.73
2023-01-29T20:31:01.258Z,12.90
2023-01-29T20:33:28.221Z,12.55
2023-01-29T20:36:04.620Z,11.75
2023-01-29T20:38:34.135Z,10.68
2023-01-29T20:41:30.447Z,11.07
2023-01-29T20:44:09.996Z,10.88
2023-01-29T20:47:30.094Z,10.57
2023-01-29T20:50:01.005Z,10.85
2023-01-29T20:52:44.573Z,11.20
2023-01-29T20:55:14.347Z,10.77
2023-01-29T20:58:17.285Z,10.32
2023-01-29T21:00:50.047Z,11.70
2023-01-29T21:04:12.812Z,11.80
2023-01-29T21:06:47.298Z,8.98
2023-01-29T21:09:14.025Z,10.52
2023-01-29T21:11:40.894Z,11.55
2023-01-29T21:14:35.745Z,10.48
2023-01-29T21:17:35.734Z,11.00
2023-01-29T21:20:04.609Z,10.90
2023-01-29T21:25:27.703Z,11.48
2023-01-29T21:28:04.564Z,10.93
2023-01-29T21:30:35.052Z,12.27
2023-01-29T21:33:03.811Z,11.63
2023-01-29T21:35:30.692Z,10.15
2023-01-29T21:37:57.141Z,10.80
2023-01-29T21:40:25.223Z,10.30
2023-01-29T21:43:14.114Z,10.95
2023-01-29T21:45:47.297Z,10.27
2023-01-29T21:48:18.082Z,11.20
2023-01-29T21:50:50.933Z,10.52
2023-01-29T21:53:19.266Z,11.45
2023-01-29T21:55:50.761Z,10.10
2023-01-29T21:58:17.245Z,11.68
2023-01-29T22:00:51.506Z,10.98
2023-01-29T22:03:23.632Z,10.68
2023-01-29T22:05:50.643Z,11.20
2023-01-29T22:08:20.641Z,11.02
2023-01-29T22:10:50.430Z,11.57
2023-01-29T22:13:24.440Z,10.55
2023-01-29T22:15:58.059Z,10.57
2023-01-29T22:18:24.614Z,10.52
2023-01-29T22:20:55.666Z,9.95
2023-01-29T22:23:23.239Z,12.40
2023-01-29T22:25:50.210Z,10.40
2023-01-29T22:28:20.996Z,10.93
2023-01-29T22:30:47.705Z,12.60
2023-01-29T22:33:19.911Z,10.68
2023-01-29T22:35:49.500Z,10.80
2023-01-29T22:38:16.064Z,12.55
2023-01-29T22:40:55.016Z,10.18
2023-01-29T22:43:40.975Z,10.35
2023-01-29T22:46:22.999Z,11.40
2023-01-29T22:48:51.944Z,11.85
2023-01-29T22:51:19.145Z,11.20
2023-01-29T22:53:59.760Z,10.48
2023-01-29T22:56:28.347Z,10.70
2023-01-29T22:58:57.173Z,10.73
2023-01-29T23:01:26.736Z,11.02
2023-01-29T23:03:53.883Z,10.93
2023-01-29T23:06:24.105Z,9.30
2023-01-29T23:08:53.024Z,11.88
2023-01-29T23:11:23.581Z,11.32
2023-01-29T23:13:54.991Z,9.98
2023-01-29T23:16:24.901Z,10.57
2023-01-29T23:18:54.131Z,11.07
2023-01-29T23:21:24.797Z,9.45
2023-01-29T23:24:01.144Z,9.93
2023-01-29T23:26:47.552Z,10.00
2023-01-29T23:31:41.257Z,9.93
2023-01-29T23:34:10.610Z,11.60
2023-01-29T23:36:37.244Z,10.70
2023-01-29T23:39:07.943Z,11.43
2023-01-29T23:41:34.921Z,11.95
2023-01-29T23:44:01.575Z,10.40
2023-01-29T23:46:28.241Z,11.52
2023-01-29T23:48:54.779Z,11.00
2023-01-29T23:51:21.473Z,10.85
2023-01-29T23:53:58.230Z,12.43
2023-01-29T23:56:26.630Z,11.02
2023-01-29T23:59:08.809Z,11.85
